sensor_id;sensor_type;location;lat;lon;timestamp;P1;durP1;ratioP1;P2;durP2;ratioP2
43248;SDS011;29216;51.248;6.808;2024-03-07T00:01:32;51.55;;;29.67;;
43248;SDS011;29216;51.248;6.808;2024-03-07T00:03:58;54.80;;;31.15;;
43248;SDS011;29216;51.248;6.808;2024-03-07T00:06:24;56.58;;;30.65;;
43248;SDS011;29216;51.248;6.808;2024-03-07T00:08:50;61.63;;;32.03;;
43248;SDS011;29216;51.248;6.808;2024-03-07T00:11:16;57.35;;;31.50;;
43248;SDS011;29216;51.248;6.808;2024-03-07T00:13:42;57.95;;;31.10;;
43248;SDS011;29216;51.248;6.808;2024-03-07T00:16:08;67.45;;;34.28;;
43248;SDS011;29216;51.248;6.808;2024-03-07T00:18:35;66.95;;;35.58;;
43248;SDS011;29216;51.248;6.808;2024-03-07T00:21:02;57.35;;;32.28;;
43248;SDS011;29216;51.248;6.808;2024-03-07T00:23:28;62.95;;;33.28;;
43248;SDS011;29216;51.248;6.808;2024-03-07T00:25:54;58.85;;;31.95;;
43248;SDS011;29216;51.248;6.808;2024-03-07T00:28:21;58.28;;;31.45;;
43248;SDS011;29216;51.248;6.808;2024-03-07T00:30:47;62.95;;;33.28;;
43248;SDS011;29216;51.248;6.808;2024-03-07T00:33:13;64.53;;;33.25;;
43248;SDS011;29216;51.248;6.808;2024-03-07T00:35:39;64.93;;;32.50;;
43248;SDS011;29216;51.248;6.808;2024-03-07T00:38:05;68.75;;;35.10;;
43248;SDS011;29216;51.248;6.808;2024-03-07T00:40:31;63.88;;;34.88;;
43248;SDS011;29216;51.248;6.808;2024-03-07T00:42:57;64.60;;;35.13;;
43248;SDS011;29216;51.248;6.808;2024-03-07T00:45:25;64.13;;;32.80;;
43248;SDS011;29216;51.248;6.808;2024-03-07T00:47:51;60.22;;;33.80;;
43248;SDS011;29216;51.248;6.808;2024-03-07T00:50:17;65.75;;;33.13;;
43248;SDS011;29216;51.248;6.808;2024-03-07T00:52:44;83.45;;;34.70;;
43248;SDS011;29216;51.248;6.808;2024-03-07T00:55:10;76.45;;;36.55;;
43248;SDS011;29216;51.248;6.808;2024-03-07T00:57:36;72.13;;;35.95;;
43248;SDS011;29216;51.248;6.808;2024-03-07T01:00:03;73.65;;;36.70;;
43248;SDS011;29216;51.248;6.808;2024-03-07T01:02:29;65.72;;;33.65;;
43248;SDS011;29216;51.248;6.808;2024-03-07T01:04:55;72.53;;;34.63;;
43248;SDS011;29216;51.248;6.808;2024-03-07T01:07:21;83.20;;;39.05;;
43248;SDS011;29216;51.248;6.808;2024-03-07T01:09:48;71.90;;;35.72;;
43248;SDS011;29216;51.248;6.808;2024-03-07T01:12:15;69.20;;;34.65;;
43248;SDS011;29216;51.248;6.808;2024-03-07T01:14:42;73.10;;;34.95;;
43248;SDS011;29216;51.248;6.808;2024-03-07T01:17:07;70.88;;;36.92;;
43248;SDS011;29216;51.248;6.808;2024-03-07T01:19:33;70.25;;;35.70;;
43248;SDS011;29216;51.248;6.808;2024-03-07T01:21:59;77.80;;;37.05;;
43248;SDS011;29216;51.248;6.808;2024-03-07T01:24:25;76.43;;;36.33;;
43248;SDS011;29216;51.248;6.808;2024-03-07T01:26:51;73.10;;;35.50;;
43248;SDS011;29216;51.248;6.808;2024-03-07T01:29:18;71.15;;;33.35;;
43248;SDS011;29216;51.248;6.808;2024-03-07T01:31:44;74.53;;;36.65;;
43248;SDS011;29216;51.248;6.808;2024-03-07T01:34:09;68.72;;;35.45;;
43248;SDS011;29216;51.248;6.808;2024-03-07T01:36:35;73.97;;;35.10;;
43248;SDS011;29216;51.248;6.808;2024-03-07T01:39:01;68.03;;;35.40;;
43248;SDS011;29216;51.248;6.808;2024-03-07T01:41:28;65.80;;;34.83;;
43248;SDS011;29216;51.248;6.808;2024-03-07T01:43:54;64.95;;;33.13;;
43248;SDS011;29216;51.248;6.808;2024-03-07T01:46:20;68.68;;;34.53;;
43248;SDS011;29216;51.248;6.808;2024-03-07T01:48:46;63.92;;;32.55;;
43248;SDS011;29216;51.248;6.808;2024-03-07T01:51:13;72.18;;;32.70;;
43248;SDS011;29216;51.248;6.808;2024-03-07T01:53:39;69.80;;;34.63;;
43248;SDS011;29216;51.248;6.808;2024-03-07T01:56:06;71.88;;;33.20;;
43248;SDS011;29216;51.248;6.808;2024-03-07T01:58:33;74.47;;;35.08;;
43248;SDS011;29216;51.248;6.808;2024-03-07T02:00:59;71.60;;;33.75;;
43248;SDS011;29216;51.248;6.808;2024-03-07T02:03:25;76.15;;;35.60;;
43248;SDS011;29216;51.248;6.808;2024-03-07T02:05:51;66.65;;;33.78;;
43248;SDS011;29216;51.248;6.808;2024-03-07T02:08:18;64.72;;;32.72;;
43248;SDS011;29216;51.248;6.808;2024-03-07T02:10:44;67.47;;;33.78;;
43248;SDS011;29216;51.248;6.808;2024-03-07T02:13:11;67.63;;;34.15;;
43248;SDS011;29216;51.248;6.808;2024-03-07T02:15:37;71.78;;;36.03;;
43248;SDS011;29216;51.248;6.808;2024-03-07T02:18:03;64.47;;;32.88;;
43248;SDS011;29216;51.248;6.808;2024-03-07T02:20:30;64.78;;;33.60;;
43248;SDS011;29216;51.248;6.808;2024-03-07T02:22:56;65.03;;;33.28;;
43248;SDS011;29216;51.248;6.808;2024-03-07T02:25:22;63.25;;;32.40;;
43248;SDS011;29216;51.248;6.808;2024-03-07T02:27:48;67.63;;;33.47;;
43248;SDS011;29216;51.248;6.808;2024-03-07T02:30:14;67.25;;;33.55;;
43248;SDS011;29216;51.248;6.808;2024-03-07T02:32:40;63.83;;;34.20;;
43248;SDS011;29216;51.248;6.808;2024-03-07T02:35:06;67.35;;;32.13;;
43248;SDS011;29216;51.248;6.808;2024-03-07T02:37:33;65.28;;;34.38;;
43248;SDS011;29216;51.248;6.808;2024-03-07T02:39:59;59.13;;;32.28;;
43248;SDS011;29216;51.248;6.808;2024-03-07T02:42:26;65.60;;;33.08;;
43248;SDS011;29216;51.248;6.808;2024-03-07T02:44:52;64.25;;;34.03;;
43248;SDS011;29216;51.248;6.808;2024-03-07T02:47:18;64.85;;;33.05;;
43248;SDS011;29216;51.248;6.808;2024-03-07T02:49:44;65.68;;;33.05;;
43248;SDS011;29216;51.248;6.808;2024-03-07T02:52:10;73.40;;;34.97;;
43248;SDS011;29216;51.248;6.808;2024-03-07T02:54:36;76.47;;;37.03;;
43248;SDS011;29216;51.248;6.808;2024-03-07T02:57:02;72.07;;;34.22;;
43248;SDS011;29216;51.248;6.808;2024-03-07T02:59:28;69.65;;;34.42;;
43248;SDS011;29216;51.248;6.808;2024-03-07T03:01:54;61.10;;;32.75;;
43248;SDS011;29216;51.248;6.808;2024-03-07T03:04:21;64.43;;;31.55;;
43248;SDS011;29216;51.248;6.808;2024-03-07T03:06:47;59.72;;;33.53;;
43248;SDS011;29216;51.248;6.808;2024-03-07T03:09:13;60.92;;;32.63;;
43248;SDS011;29216;51.248;6.808;2024-03-07T03:11:42;64.22;;;31.15;;
43248;SDS011;29216;51.248;6.808;2024-03-07T03:14:08;65.10;;;33.40;;
43248;SDS011;29216;51.248;6.808;2024-03-07T03:16:35;63.42;;;32.65;;
43248;SDS011;29216;51.248;6.808;2024-03-07T03:19:01;64.80;;;33.80;;
43248;SDS011;29216;51.248;6.808;2024-03-07T03:21:27;59.58;;;31.63;;
43248;SDS011;29216;51.248;6.808;2024-03-07T03:23:53;55.30;;;30.90;;
43248;SDS011;29216;51.248;6.808;2024-03-07T03:26:20;59.05;;;31.48;;
43248;SDS011;29216;51.248;6.808;2024-03-07T03:28:46;61.95;;;32.90;;
43248;SDS011;29216;51.248;6.808;2024-03-07T03:31:13;60.67;;;32.03;;
43248;SDS011;29216;51.248;6.808;2024-03-07T03:33:39;57.72;;;31.55;;
43248;SDS011;29216;51.248;6.808;2024-03-07T03:36:06;61.75;;;30.55;;
43248;SDS011;29216;51.248;6.808;2024-03-07T03:38:32;55.65;;;31.08;;
43248;SDS011;29216;51.248;6.808;2024-03-07T03:40:58;60.17;;;30.77;;
43248;SDS011;29216;51.248;6.808;2024-03-07T03:43:24;50.90;;;30.10;;
43248;SDS011;29216;51.248;6.808;2024-03-07T03:45:50;53.40;;;30.65;;
43248;SDS011;29216;51.248;6.808;2024-03-07T03:48:16;50.20;;;28.20;;
43248;SDS011;29216;51.248;6.808;2024-03-07T03:50:42;53.42;;;28.55;;
43248;SDS011;29216;51.248;6.808;2024-03-07T03:53:08;56.33;;;31.40;;
43248;SDS011;29216;51.248;6.808;2024-03-07T03:55:34;60.95;;;31.40;;
43248;SDS011;29216;51.248;6.808;2024-03-07T03:58:01;50.97;;;29.40;;
43248;SDS011;29216;51.248;6.808;2024-03-07T04:00:27;45.70;;;28.30;;
43248;SDS011;29216;51.248;6.808;2024-03-07T04:02:53;48.65;;;28.15;;
43248;SDS011;29216;51.248;6.808;2024-03-07T04:05:19;54.67;;;31.30;;
43248;SDS011;29216;51.248;6.808;2024-03-07T04:07:46;56.40;;;31.13;;
43248;SDS011;29216;51.248;6.808;2024-03-07T04:10:12;51.45;;;28.95;;
43248;SDS011;29216;51.248;6.808;2024-03-07T04:12:39;49.38;;;27.77;;
43248;SDS011;29216;51.248;6.808;2024-03-07T04:15:09;59.17;;;29.20;;
43248;SDS011;29216;51.248;6.808;2024-03-07T04:17:35;59.33;;;30.70;;
43248;SDS011;29216;51.248;6.808;2024-03-07T04:20:02;51.85;;;29.75;;
43248;SDS011;29216;51.248;6.808;2024-03-07T04:22:32;54.78;;;30.58;;
43248;SDS011;29216;51.248;6.808;2024-03-07T04:24:59;54.22;;;29.63;;
43248;SDS011;29216;51.248;6.808;2024-03-07T04:27:26;57.78;;;30.60;;
43248;SDS011;29216;51.248;6.808;2024-03-07T04:29:52;54.88;;;31.38;;
43248;SDS011;29216;51.248;6.808;2024-03-07T04:32:18;61.38;;;32.75;;
43248;SDS011;29216;51.248;6.808;2024-03-07T04:34:44;54.58;;;30.38;;
43248;SDS011;29216;51.248;6.808;2024-03-07T04:37:10;52.78;;;30.27;;
43248;SDS011;29216;51.248;6.808;2024-03-07T04:39:37;54.92;;;30.92;;
43248;SDS011;29216;51.248;6.808;2024-03-07T04:42:03;57.90;;;30.52;;
43248;SDS011;29216;51.248;6.808;2024-03-07T04:44:31;58.78;;;31.00;;
43248;SDS011;29216;51.248;6.808;2024-03-07T04:46:57;53.10;;;30.77;;
43248;SDS011;29216;51.248;6.808;2024-03-07T04:49:25;62.67;;;32.95;;
43248;SDS011;29216;51.248;6.808;2024-03-07T04:51:51;63.03;;;32.50;;
43248;SDS011;29216;51.248;6.808;2024-03-07T04:54:18;64.18;;;32.88;;
43248;SDS011;29216;51.248;6.808;2024-03-07T04:56:45;72.55;;;35.67;;
43248;SDS011;29216;51.248;6.808;2024-03-07T04:59:11;71.05;;;36.50;;
43248;SDS011;29216;51.248;6.808;2024-03-07T05:01:37;64.90;;;33.90;;
43248;SDS011;29216;51.248;6.808;2024-03-07T05:04:04;66.72;;;33.47;;
43248;SDS011;29216;51.248;6.808;2024-03-07T05:06:30;65.22;;;33.47;;
43248;SDS011;29216;51.248;6.808;2024-03-07T05:08:59;65.60;;;34.35;;
43248;SDS011;29216;51.248;6.808;2024-03-07T05:11:26;63.00;;;33.78;;
43248;SDS011;29216;51.248;6.808;2024-03-07T05:13:52;69.47;;;34.55;;
43248;SDS011;29216;51.248;6.808;2024-03-07T05:16:18;68.43;;;35.75;;
43248;SDS011;29216;51.248;6.808;2024-03-07T05:18:44;65.80;;;36.22;;
43248;SDS011;29216;51.248;6.808;2024-03-07T05:21:11;66.18;;;34.42;;
43248;SDS011;29216;51.248;6.808;2024-03-07T05:24:10;73.07;;;34.63;;
43248;SDS011;29216;51.248;6.808;2024-03-07T05:26:36;64.85;;;36.25;;
43248;SDS011;29216;51.248;6.808;2024-03-07T05:29:05;74.72;;;39.60;;
43248;SDS011;29216;51.248;6.808;2024-03-07T05:31:35;70.65;;;35.53;;
43248;SDS011;29216;51.248;6.808;2024-03-07T05:34:01;67.75;;;35.17;;
43248;SDS011;29216;51.248;6.808;2024-03-07T05:36:36;74.75;;;39.25;;
43248;SDS011;29216;51.248;6.808;2024-03-07T05:39:09;74.38;;;36.03;;
43248;SDS011;29216;51.248;6.808;2024-03-07T05:41:36;72.65;;;36.50;;
43248;SDS011;29216;51.248;6.808;2024-03-07T05:44:02;72.20;;;37.20;;
43248;SDS011;29216;51.248;6.808;2024-03-07T05:46:28;75.35;;;38.25;;
43248;SDS011;29216;51.248;6.808;2024-03-07T05:48:54;72.78;;;38.25;;
43248;SDS011;29216;51.248;6.808;2024-03-07T05:51:24;80.80;;;38.50;;
43248;SDS011;29216;51.248;6.808;2024-03-07T05:53:51;75.53;;;38.25;;
43248;SDS011;29216;51.248;6.808;2024-03-07T05:56:17;73.45;;;37.00;;
43248;SDS011;29216;51.248;6.808;2024-03-07T05:58:43;75.20;;;36.53;;
43248;SDS011;29216;51.248;6.808;2024-03-07T06:01:09;69.97;;;37.70;;
43248;SDS011;29216;51.248;6.808;2024-03-07T06:03:35;60.85;;;35.92;;
43248;SDS011;29216;51.248;6.808;2024-03-07T06:06:01;67.28;;;35.92;;
43248;SDS011;29216;51.248;6.808;2024-03-07T06:08:27;69.80;;;36.00;;
43248;SDS011;29216;51.248;6.808;2024-03-07T06:10:53;65.57;;;35.35;;
43248;SDS011;29216;51.248;6.808;2024-03-07T06:13:19;63.90;;;35.17;;
43248;SDS011;29216;51.248;6.808;2024-03-07T06:15:45;68.82;;;35.25;;
43248;SDS011;29216;51.248;6.808;2024-03-07T06:18:13;67.22;;;36.05;;
43248;SDS011;29216;51.248;6.808;2024-03-07T06:20:40;66.85;;;35.42;;
43248;SDS011;29216;51.248;6.808;2024-03-07T06:23:06;74.32;;;36.22;;
43248;SDS011;29216;51.248;6.808;2024-03-07T06:25:32;71.93;;;36.40;;
43248;SDS011;29216;51.248;6.808;2024-03-07T06:28:01;64.88;;;34.65;;
43248;SDS011;29216;51.248;6.808;2024-03-07T06:30:38;66.15;;;35.25;;
43248;SDS011;29216;51.248;6.808;2024-03-07T06:33:10;58.67;;;33.45;;
43248;SDS011;29216;51.248;6.808;2024-03-07T06:35:37;63.10;;;35.55;;
43248;SDS011;29216;51.248;6.808;2024-03-07T06:38:06;66.47;;;35.20;;
43248;SDS011;29216;51.248;6.808;2024-03-07T06:40:36;72.80;;;36.33;;
43248;SDS011;29216;51.248;6.808;2024-03-07T06:43:02;66.70;;;36.47;;
43248;SDS011;29216;51.248;6.808;2024-03-07T06:45:29;63.47;;;35.30;;
43248;SDS011;29216;51.248;6.808;2024-03-07T06:47:55;64.88;;;34.60;;
43248;SDS011;29216;51.248;6.808;2024-03-07T06:50:21;65.22;;;34.97;;
43248;SDS011;29216;51.248;6.808;2024-03-07T06:52:48;59.47;;;35.38;;
43248;SDS011;29216;51.248;6.808;2024-03-07T06:55:15;65.28;;;35.10;;
43248;SDS011;29216;51.248;6.808;2024-03-07T06:57:42;59.97;;;34.58;;
43248;SDS011;29216;51.248;6.808;2024-03-07T07:00:08;62.70;;;35.58;;
43248;SDS011;29216;51.248;6.808;2024-03-07T07:02:39;59.65;;;33.38;;
43248;SDS011;29216;51.248;6.808;2024-03-07T07:05:08;51.90;;;30.70;;
43248;SDS011;29216;51.248;6.808;2024-03-07T07:07:44;47.33;;;29.13;;
43248;SDS011;29216;51.248;6.808;2024-03-07T07:10:10;44.05;;;28.38;;
43248;SDS011;29216;51.248;6.808;2024-03-07T07:12:49;44.95;;;27.90;;
43248;SDS011;29216;51.248;6.808;2024-03-07T07:15:17;39.15;;;25.38;;
43248;SDS011;29216;51.248;6.808;2024-03-07T07:17:44;35.78;;;24.60;;
43248;SDS011;29216;51.248;6.808;2024-03-07T07:20:11;39.85;;;25.08;;
43248;SDS011;29216;51.248;6.808;2024-03-07T07:22:40;30.85;;;21.77;;
43248;SDS011;29216;51.248;6.808;2024-03-07T07:25:06;36.85;;;22.25;;
43248;SDS011;29216;51.248;6.808;2024-03-07T07:27:39;33.30;;;22.35;;
43248;SDS011;29216;51.248;6.808;2024-03-07T07:30:06;33.70;;;21.80;;
43248;SDS011;29216;51.248;6.808;2024-03-07T07:32:32;31.10;;;20.23;;
43248;SDS011;29216;51.248;6.808;2024-03-07T07:34:58;28.15;;;20.00;;
43248;SDS011;29216;51.248;6.808;2024-03-07T07:37:24;29.30;;;19.90;;
43248;SDS011;29216;51.248;6.808;2024-03-07T07:39:50;27.17;;;19.65;;
43248;SDS011;29216;51.248;6.808;2024-03-07T07:42:16;28.40;;;19.30;;
43248;SDS011;29216;51.248;6.808;2024-03-07T07:44:42;27.45;;;18.27;;
43248;SDS011;29216;51.248;6.808;2024-03-07T07:47:08;26.48;;;17.42;;
43248;SDS011;29216;51.248;6.808;2024-03-07T07:49:36;27.63;;;18.23;;
43248;SDS011;29216;51.248;6.808;2024-03-07T07:52:03;23.15;;;17.52;;
43248;SDS011;29216;51.248;6.808;2024-03-07T07:54:29;29.00;;;17.55;;
43248;SDS011;29216;51.248;6.808;2024-03-07T07:56:55;23.02;;;16.67;;
43248;SDS011;29216;51.248;6.808;2024-03-07T07:59:21;22.55;;;17.02;;
43248;SDS011;29216;51.248;6.808;2024-03-07T08:01:47;20.73;;;15.30;;
43248;SDS011;29216;51.248;6.808;2024-03-07T08:04:13;21.02;;;15.55;;
43248;SDS011;29216;51.248;6.808;2024-03-07T08:06:40;21.90;;;16.08;;
43248;SDS011;29216;51.248;6.808;2024-03-07T08:09:06;21.15;;;15.32;;
43248;SDS011;29216;51.248;6.808;2024-03-07T08:11:35;22.10;;;16.35;;
43248;SDS011;29216;51.248;6.808;2024-03-07T08:14:02;22.23;;;16.67;;
43248;SDS011;29216;51.248;6.808;2024-03-07T08:16:28;23.27;;;16.02;;
43248;SDS011;29216;51.248;6.808;2024-03-07T08:18:54;22.50;;;15.43;;
43248;SDS011;29216;51.248;6.808;2024-03-07T08:21:21;21.83;;;16.10;;
43248;SDS011;29216;51.248;6.808;2024-03-07T08:23:48;22.85;;;15.68;;
43248;SDS011;29216;51.248;6.808;2024-03-07T08:26:14;19.58;;;14.63;;
43248;SDS011;29216;51.248;6.808;2024-03-07T08:28:40;21.63;;;14.45;;
43248;SDS011;29216;51.248;6.808;2024-03-07T08:31:06;20.52;;;15.70;;
43248;SDS011;29216;51.248;6.808;2024-03-07T08:33:34;20.42;;;15.80;;
43248;SDS011;29216;51.248;6.808;2024-03-07T08:36:00;23.55;;;16.95;;
43248;SDS011;29216;51.248;6.808;2024-03-07T08:38:26;22.90;;;15.73;;
43248;SDS011;29216;51.248;6.808;2024-03-07T08:40:52;20.75;;;15.55;;
43248;SDS011;29216;51.248;6.808;2024-03-07T08:43:18;22.85;;;16.33;;
43248;SDS011;29216;51.248;6.808;2024-03-07T08:45:44;23.00;;;15.43;;
43248;SDS011;29216;51.248;6.808;2024-03-07T08:48:10;23.50;;;16.35;;
43248;SDS011;29216;51.248;6.808;2024-03-07T08:50:38;24.75;;;16.45;;
43248;SDS011;29216;51.248;6.808;2024-03-07T08:53:04;25.48;;;15.63;;
43248;SDS011;29216;51.248;6.808;2024-03-07T08:55:30;23.27;;;15.82;;
43248;SDS011;29216;51.248;6.808;2024-03-07T08:57:56;23.75;;;15.13;;
43248;SDS011;29216;51.248;6.808;2024-03-07T09:00:22;23.83;;;15.43;;
43248;SDS011;29216;51.248;6.808;2024-03-07T09:02:51;24.77;;;15.30;;
43248;SDS011;29216;51.248;6.808;2024-03-07T09:05:18;22.33;;;15.50;;
43248;SDS011;29216;51.248;6.808;2024-03-07T09:07:45;25.30;;;16.60;;
43248;SDS011;29216;51.248;6.808;2024-03-07T09:10:12;23.88;;;14.68;;
43248;SDS011;29216;51.248;6.808;2024-03-07T09:12:39;27.50;;;16.90;;
43248;SDS011;29216;51.248;6.808;2024-03-07T09:15:05;22.65;;;15.43;;
43248;SDS011;29216;51.248;6.808;2024-03-07T09:17:31;27.17;;;15.05;;
43248;SDS011;29216;51.248;6.808;2024-03-07T09:19:57;24.90;;;15.02;;
43248;SDS011;29216;51.248;6.808;2024-03-07T09:22:23;22.05;;;14.82;;
43248;SDS011;29216;51.248;6.808;2024-03-07T09:24:50;24.75;;;15.05;;
43248;SDS011;29216;51.248;6.808;2024-03-07T09:27:16;22.55;;;14.65;;
43248;SDS011;29216;51.248;6.808;2024-03-07T09:29:45;21.67;;;14.40;;
43248;SDS011;29216;51.248;6.808;2024-03-07T09:32:14;21.83;;;14.90;;
43248;SDS011;29216;51.248;6.808;2024-03-07T09:34:40;23.20;;;15.25;;
43248;SDS011;29216;51.248;6.808;2024-03-07T09:37:06;19.95;;;14.20;;
43248;SDS011;29216;51.248;6.808;2024-03-07T09:39:32;22.88;;;14.70;;
43248;SDS011;29216;51.248;6.808;2024-03-07T09:42:00;22.77;;;14.50;;
43248;SDS011;29216;51.248;6.808;2024-03-07T09:44:26;24.52;;;15.77;;
43248;SDS011;29216;51.248;6.808;2024-03-07T09:46:57;23.92;;;15.45;;
43248;SDS011;29216;51.248;6.808;2024-03-07T09:49:24;24.70;;;14.27;;
43248;SDS011;29216;51.248;6.808;2024-03-07T09:51:51;24.35;;;14.68;;
43248;SDS011;29216;51.248;6.808;2024-03-07T09:54:21;21.85;;;13.55;;
43248;SDS011;29216;51.248;6.808;2024-03-07T09:56:49;23.30;;;14.27;;
43248;SDS011;29216;51.248;6.808;2024-03-07T09:59:16;21.13;;;13.23;;
43248;SDS011;29216;51.248;6.808;2024-03-07T10:01:47;22.38;;;13.20;;
43248;SDS011;29216;51.248;6.808;2024-03-07T10:04:16;19.33;;;13.35;;
43248;SDS011;29216;51.248;6.808;2024-03-07T10:06:46;21.55;;;15.07;;
43248;SDS011;29216;51.248;6.808;2024-03-07T10:09:12;21.10;;;13.75;;
43248;SDS011;29216;51.248;6.808;2024-03-07T10:11:41;19.15;;;12.80;;
43248;SDS011;29216;51.248;6.808;2024-03-07T10:14:08;22.80;;;13.25;;
43248;SDS011;29216;51.248;6.808;2024-03-07T10:16:35;21.80;;;13.85;;
43248;SDS011;29216;51.248;6.808;2024-03-07T10:19:05;20.77;;;13.13;;
43248;SDS011;29216;51.248;6.808;2024-03-07T10:21:33;21.15;;;14.05;;
43248;SDS011;29216;51.248;6.808;2024-03-07T10:24:07;19.65;;;12.57;;
43248;SDS011;29216;51.248;6.808;2024-03-07T10:26:39;20.42;;;12.70;;
43248;SDS011;29216;51.248;6.808;2024-03-07T10:29:08;20.35;;;13.20;;
43248;SDS011;29216;51.248;6.808;2024-03-07T10:31:34;21.00;;;12.70;;
43248;SDS011;29216;51.248;6.808;2024-03-07T10:34:04;19.35;;;12.55;;
43248;SDS011;29216;51.248;6.808;2024-03-07T10:36:30;21.98;;;13.45;;
43248;SDS011;29216;51.248;6.808;2024-03-07T10:39:00;18.35;;;12.55;;
43248;SDS011;29216;51.248;6.808;2024-03-07T10:41:41;18.60;;;12.77;;
43248;SDS011;29216;51.248;6.808;2024-03-07T10:44:10;21.05;;;12.98;;
43248;SDS011;29216;51.248;6.808;2024-03-07T10:46:38;21.25;;;12.82;;
43248;SDS011;29216;51.248;6.808;2024-03-07T10:49:05;23.73;;;14.30;;
43248;SDS011;29216;51.248;6.808;2024-03-07T10:51:40;20.05;;;12.70;;
43248;SDS011;29216;51.248;6.808;2024-03-07T10:54:20;22.13;;;12.38;;
43248;SDS011;29216;51.248;6.808;2024-03-07T10:59:20;20.27;;;13.48;;
43248;SDS011;29216;51.248;6.808;2024-03-07T11:04:16;21.25;;;13.27;;
43248;SDS011;29216;51.248;6.808;2024-03-07T11:06:43;19.67;;;13.13;;
43248;SDS011;29216;51.248;6.808;2024-03-07T11:09:10;17.80;;;12.60;;
43248;SDS011;29216;51.248;6.808;2024-03-07T11:11:37;18.08;;;12.55;;
43248;SDS011;29216;51.248;6.808;2024-03-07T11:14:05;18.25;;;12.20;;
43248;SDS011;29216;51.248;6.808;2024-03-07T11:16:32;19.10;;;12.82;;
43248;SDS011;29216;51.248;6.808;2024-03-07T11:21:47;20.30;;;12.57;;
43248;SDS011;29216;51.248;6.808;2024-03-07T11:24:26;19.77;;;13.25;;
43248;SDS011;29216;51.248;6.808;2024-03-07T11:26:57;20.63;;;12.57;;
43248;SDS011;29216;51.248;6.808;2024-03-07T11:32:11;20.95;;;11.77;;
43248;SDS011;29216;51.248;6.808;2024-03-07T11:34:38;16.20;;;11.68;;
43248;SDS011;29216;51.248;6.808;2024-03-07T11:37:11;19.63;;;12.55;;
43248;SDS011;29216;51.248;6.808;2024-03-07T11:39:46;19.10;;;12.15;;
43248;SDS011;29216;51.248;6.808;2024-03-07T11:44:45;20.27;;;13.48;;
43248;SDS011;29216;51.248;6.808;2024-03-07T11:47:14;19.40;;;12.55;;
43248;SDS011;29216;51.248;6.808;2024-03-07T11:49:43;19.67;;;12.57;;
43248;SDS011;29216;51.248;6.808;2024-03-07T11:52:09;18.00;;;12.25;;
43248;SDS011;29216;51.248;6.808;2024-03-07T11:54:38;17.60;;;12.98;;
43248;SDS011;29216;51.248;6.808;2024-03-07T11:57:20;21.17;;;12.60;;
43248;SDS011;29216;51.248;6.808;2024-03-07T11:59:51;19.15;;;12.68;;
43248;SDS011;29216;51.248;6.808;2024-03-07T12:02:18;19.73;;;13.20;;
43248;SDS011;29216;51.248;6.808;2024-03-07T12:04:48;18.58;;;12.57;;
43248;SDS011;29216;51.248;6.808;2024-03-07T12:07:16;19.08;;;12.32;;
43248;SDS011;29216;51.248;6.808;2024-03-07T12:09:43;17.20;;;11.27;;
43248;SDS011;29216;51.248;6.808;2024-03-07T12:12:15;17.25;;;11.13;;
43248;SDS011;29216;51.248;6.808;2024-03-07T12:14:42;16.25;;;10.98;;
43248;SDS011;29216;51.248;6.808;2024-03-07T12:17:08;15.95;;;8.80;;
43248;SDS011;29216;51.248;6.808;2024-03-07T12:19:34;17.05;;;11.75;;
43248;SDS011;29216;51.248;6.808;2024-03-07T12:22:01;17.88;;;12.10;;
43248;SDS011;29216;51.248;6.808;2024-03-07T12:24:27;17.48;;;12.45;;
43248;SDS011;29216;51.248;6.808;2024-03-07T12:27:04;20.38;;;12.30;;
43248;SDS011;29216;51.248;6.808;2024-03-07T12:29:30;19.63;;;13.07;;
43248;SDS011;29216;51.248;6.808;2024-03-07T12:31:57;20.38;;;13.55;;
43248;SDS011;29216;51.248;6.808;2024-03-07T12:34:24;19.83;;;14.13;;
43248;SDS011;29216;51.248;6.808;2024-03-07T12:36:52;21.50;;;13.95;;
43248;SDS011;29216;51.248;6.808;2024-03-07T12:39:24;20.60;;;13.57;;
43248;SDS011;29216;51.248;6.808;2024-03-07T12:41:57;19.60;;;14.35;;
43248;SDS011;29216;51.248;6.808;2024-03-07T12:44:23;20.23;;;12.93;;
43248;SDS011;29216;51.248;6.808;2024-03-07T12:46:52;19.80;;;13.38;;
43248;SDS011;29216;51.248;6.808;2024-03-07T12:49:20;21.23;;;13.45;;
43248;SDS011;29216;51.248;6.808;2024-03-07T12:51:46;21.48;;;13.05;;
43248;SDS011;29216;51.248;6.808;2024-03-07T12:54:12;20.05;;;12.90;;
43248;SDS011;29216;51.248;6.808;2024-03-07T12:56:38;21.77;;;12.35;;
43248;SDS011;29216;51.248;6.808;2024-03-07T12:59:05;17.35;;;12.10;;
43248;SDS011;29216;51.248;6.808;2024-03-07T13:01:34;22.15;;;12.60;;
43248;SDS011;29216;51.248;6.808;2024-03-07T13:04:00;16.85;;;12.32;;
43248;SDS011;29216;51.248;6.808;2024-03-07T13:06:26;24.30;;;13.98;;
43248;SDS011;29216;51.248;6.808;2024-03-07T13:08:54;21.05;;;13.00;;
43248;SDS011;29216;51.248;6.808;2024-03-07T13:11:23;19.17;;;13.30;;
43248;SDS011;29216;51.248;6.808;2024-03-07T13:13:52;23.85;;;14.93;;
43248;SDS011;29216;51.248;6.808;2024-03-07T13:16:18;20.25;;;13.32;;
43248;SDS011;29216;51.248;6.808;2024-03-07T13:18:44;19.25;;;12.80;;
43248;SDS011;29216;51.248;6.808;2024-03-07T13:21:11;20.35;;;12.68;;
43248;SDS011;29216;51.248;6.808;2024-03-07T13:23:42;16.52;;;12.95;;
43248;SDS011;29216;51.248;6.808;2024-03-07T13:26:08;23.70;;;13.15;;
43248;SDS011;29216;51.248;6.808;2024-03-07T13:28:41;17.90;;;13.00;;
43248;SDS011;29216;51.248;6.808;2024-03-07T13:31:07;21.23;;;13.85;;
43248;SDS011;29216;51.248;6.808;2024-03-07T13:33:33;19.58;;;14.10;;
43248;SDS011;29216;51.248;6.808;2024-03-07T13:36:01;22.90;;;14.75;;
43248;SDS011;29216;51.248;6.808;2024-03-07T13:38:28;22.75;;;15.35;;
43248;SDS011;29216;51.248;6.808;2024-03-07T13:40:54;22.70;;;15.93;;
43248;SDS011;29216;51.248;6.808;2024-03-07T13:43:22;20.42;;;14.05;;
43248;SDS011;29216;51.248;6.808;2024-03-07T13:45:48;17.42;;;12.55;;
43248;SDS011;29216;51.248;6.808;2024-03-07T13:48:14;18.42;;;12.73;;
43248;SDS011;29216;51.248;6.808;2024-03-07T13:50:42;17.70;;;13.10;;
43248;SDS011;29216;51.248;6.808;2024-03-07T13:53:13;17.42;;;11.90;;
43248;SDS011;29216;51.248;6.808;2024-03-07T13:55:47;18.42;;;12.68;;
43248;SDS011;29216;51.248;6.808;2024-03-07T13:58:18;18.10;;;12.63;;
43248;SDS011;29216;51.248;6.808;2024-03-07T14:00:54;18.65;;;13.02;;
43248;SDS011;29216;51.248;6.808;2024-03-07T14:06:02;18.70;;;12.73;;
43248;SDS011;29216;51.248;6.808;2024-03-07T14:30:50;15.52;;;10.63;;
43248;SDS011;29216;51.248;6.808;2024-03-07T14:33:19;15.82;;;10.63;;
43248;SDS011;29216;51.248;6.808;2024-03-07T14:36:02;15.88;;;10.95;;
43248;SDS011;29216;51.248;6.808;2024-03-07T14:41:12;13.52;;;9.75;;
43248;SDS011;29216;51.248;6.808;2024-03-07T14:43:40;15.32;;;10.05;;
43248;SDS011;29216;51.248;6.808;2024-03-07T14:46:09;11.45;;;7.90;;
43248;SDS011;29216;51.248;6.808;2024-03-07T14:48:37;10.85;;;7.30;;
43248;SDS011;29216;51.248;6.808;2024-03-07T14:51:03;8.85;;;6.72;;
43248;SDS011;29216;51.248;6.808;2024-03-07T14:53:29;7.82;;;6.07;;
43248;SDS011;29216;51.248;6.808;2024-03-07T14:55:55;11.18;;;6.53;;
43248;SDS011;29216;51.248;6.808;2024-03-07T14:58:21;9.95;;;6.22;;
43248;SDS011;29216;51.248;6.808;2024-03-07T15:00:48;8.55;;;6.68;;
43248;SDS011;29216;51.248;6.808;2024-03-07T15:03:15;13.38;;;7.03;;